createdAt,value
2023-05-19T00:01:07.313Z,52.10
2023-05-19T00:03:37.374Z,52.30
2023-05-19T00:06:08.904Z,52.50
2023-05-19T00:08:39.687Z,52.60
2023-05-19T00:11:08.660Z,52.60
2023-05-19T00:13:36.983Z,52.70
2023-05-19T00:16:06.085Z,52.90
2023-05-19T00:18:34.596Z,53.10
2023-05-19T00:21:02.885Z,53.30
2023-05-19T00:23:32.548Z,53.40
2023-05-19T00:26:00.724Z,53.60
2023-05-19T00:28:28.868Z,53.70
2023-05-19T00:30:57.081Z,53.60
2023-05-19T00:33:25.230Z,53.70
2023-05-19T00:35:53.464Z,53.80
2023-05-19T00:38:21.644Z,54.00
2023-05-19T00:40:51.571Z,54.10
2023-05-19T00:43:19.749Z,54.00
2023-05-19T00:45:48.077Z,54.20
2023-05-19T00:48:16.510Z,54.40
2023-05-19T00:50:45.631Z,54.60
2023-05-19T00:53:15.341Z,54.80
2023-05-19T00:55:43.908Z,54.90
2023-05-19T00:58:13.833Z,55.10
2023-05-19T01:00:42.664Z,55.20
2023-05-19T01:03:12.189Z,55.10
2023-05-19T01:05:41.885Z,55.20
2023-05-19T01:08:10.178Z,55.30
2023-05-19T01:10:38.596Z,55.60
2023-05-19T01:13:07.502Z,55.80
2023-05-19T01:15:51.685Z,56.00
2023-05-19T01:18:26.317Z,56.20
2023-05-19T01:21:05.996Z,56.30
2023-05-19T01:23:41.187Z,56.30
2023-05-19T01:26:25.992Z,56.40
2023-05-19T01:29:28.282Z,56.70
2023-05-19T01:32:01.193Z,56.90
2023-05-19T01:34:31.106Z,56.70
2023-05-19T01:37:01.724Z,56.90
2023-05-19T01:39:30.977Z,56.90
2023-05-19T01:41:59.992Z,57.10
2023-05-19T01:44:28.544Z,57.20
2023-05-19T01:46:58.390Z,57.20
2023-05-19T01:49:26.638Z,57.40
2023-05-19T01:51:54.858Z,57.60
2023-05-19T01:54:23.068Z,57.60
2023-05-19T01:56:58.166Z,57.70
2023-05-19T01:59:38.431Z,57.80
2023-05-19T02:02:19.515Z,58.00
2023-05-19T02:04:55.147Z,58.10
2023-05-19T02:07:31.981Z,58.20
2023-05-19T02:10:06.133Z,58.20
2023-05-19T02:12:37.624Z,58.20
2023-05-19T02:15:10.865Z,58.30
2023-05-19T02:17:47.756Z,58.50
2023-05-19T02:20:17.168Z,58.60
2023-05-19T02:22:45.633Z,58.70
2023-05-19T02:25:14.030Z,58.80
2023-05-19T02:27:42.883Z,58.90
2023-05-19T02:30:11.845Z,59.00
2023-05-19T02:32:41.478Z,59.20
2023-05-19T02:35:10.313Z,59.10
2023-05-19T02:37:38.717Z,59.20
2023-05-19T02:40:08.230Z,59.20
2023-05-19T02:42:36.520Z,59.40
2023-05-19T02:45:05.285Z,59.50
2023-05-19T02:47:36.121Z,59.60
2023-05-19T02:50:07.864Z,59.70
2023-05-19T02:52:36.085Z,60.30
2023-05-19T02:55:04.401Z,59.70
2023-05-19T02:57:33.114Z,59.80
2023-05-19T03:00:01.662Z,59.90
2023-05-19T03:02:33.301Z,59.90
2023-05-19T03:05:03.179Z,60.10
2023-05-19T03:07:33.669Z,60.10
2023-05-19T03:10:03.842Z,60.10
2023-05-19T03:12:32.481Z,60.20
2023-05-19T03:15:00.967Z,60.30
2023-05-19T03:17:33.670Z,60.30
2023-05-19T03:20:02.469Z,60.40
2023-05-19T03:22:32.307Z,60.50
2023-05-19T03:25:00.504Z,60.70
2023-05-19T03:27:28.680Z,60.90
2023-05-19T03:29:56.825Z,60.80
2023-05-19T03:32:25.607Z,60.80
2023-05-19T03:34:53.976Z,61.00
2023-05-19T03:37:22.203Z,61.00
2023-05-19T03:39:51.737Z,61.00
2023-05-19T03:42:19.926Z,61.10
2023-05-19T03:44:48.364Z,61.10
2023-05-19T03:47:16.620Z,61.20
2023-05-19T03:49:44.900Z,61.40
2023-05-19T03:52:13.250Z,61.60
2023-05-19T03:54:42.759Z,61.80
2023-05-19T03:57:12.527Z,61.90
2023-05-19T03:59:41.389Z,61.90
2023-05-19T04:02:09.719Z,62.00
2023-05-19T04:04:38.460Z,62.10
2023-05-19T04:07:07.155Z,62.20
2023-05-19T04:09:35.572Z,62.20
2023-05-19T04:12:03.929Z,62.10
2023-05-19T04:14:33.598Z,62.10
2023-05-19T04:17:02.009Z,62.10
2023-05-19T04:19:30.291Z,62.10
2023-05-19T04:21:58.549Z,62.20
2023-05-19T04:24:26.848Z,62.40
2023-05-19T04:26:55.139Z,62.60
2023-05-19T04:29:23.945Z,62.60
2023-05-19T04:31:53.760Z,62.70
2023-05-19T04:34:21.932Z,62.90
2023-05-19T04:36:53.139Z,63.00
2023-05-19T04:39:21.665Z,63.10
2023-05-19T04:41:49.906Z,63.10
2023-05-19T04:44:19.166Z,63.10
2023-05-19T04:46:47.416Z,63.10
2023-05-19T04:49:19.406Z,63.10
2023-05-19T04:51:50.177Z,63.20
2023-05-19T04:54:18.499Z,63.30
2023-05-19T04:56:46.689Z,63.50
2023-05-19T04:59:15.097Z,63.60
2023-05-19T05:01:43.352Z,63.70
2023-05-19T05:04:11.668Z,64.50
2023-05-19T05:06:42.391Z,63.90
2023-05-19T05:09:11.504Z,63.90
2023-05-19T05:11:40.265Z,64.00
2023-05-19T05:14:09.310Z,64.00
2023-05-19T05:16:38.282Z,64.10
2023-05-19T05:19:07.064Z,64.20
2023-05-19T05:21:35.823Z,64.20
2023-05-19T05:24:06.134Z,64.30
2023-05-19T05:26:36.399Z,64.40
2023-05-19T05:29:04.913Z,64.30
2023-05-19T05:31:33.150Z,64.30
2023-05-19T05:34:01.582Z,64.10
2023-05-19T05:36:31.514Z,64.00
2023-05-19T05:39:02.244Z,63.90
2023-05-19T05:41:35.205Z,63.80
2023-05-19T05:44:03.991Z,63.80
2023-05-19T05:46:32.888Z,63.80
2023-05-19T05:49:01.682Z,63.50
2023-05-19T05:51:31.174Z,63.20
2023-05-19T05:54:01.030Z,63.00
2023-05-19T05:56:33.707Z,62.70
2023-05-19T05:59:02.892Z,62.50
2023-05-19T06:01:33.078Z,62.30
2023-05-19T06:04:02.614Z,61.90
2023-05-19T06:06:31.532Z,61.40
2023-05-19T06:08:59.700Z,60.80
2023-05-19T06:11:28.764Z,60.30
2023-05-19T06:13:58.353Z,59.80
2023-05-19T06:16:26.651Z,59.20
2023-05-19T06:18:54.979Z,58.70
2023-05-19T06:21:23.230Z,58.20
2023-05-19T06:23:51.410Z,57.50
2023-05-19T06:26:19.592Z,56.90
2023-05-19T06:28:47.776Z,56.20
2023-05-19T06:31:17.452Z,55.60
2023-05-19T06:33:45.676Z,55.20
2023-05-19T06:36:14.169Z,54.80
2023-05-19T06:38:42.767Z,54.40
2023-05-19T06:41:10.958Z,54.10
2023-05-19T06:43:39.148Z,54.00
2023-05-19T06:46:07.410Z,53.60
2023-05-19T06:48:36.963Z,53.20
2023-05-19T06:51:05.783Z,53.10
2023-05-19T06:53:35.238Z,53.00
2023-05-19T06:56:03.405Z,52.80
2023-05-19T06:58:31.626Z,52.40
2023-05-19T07:00:59.875Z,52.50
2023-05-19T07:03:28.098Z,52.00
2023-05-19T07:05:58.471Z,51.80
2023-05-19T07:08:27.733Z,51.60
2023-05-19T07:10:56.308Z,51.50
2023-05-19T07:13:27.226Z,51.20
2023-05-19T07:15:56.895Z,51.00
2023-05-19T07:18:25.409Z,50.70
2023-05-19T07:20:54.262Z,50.50
2023-05-19T07:23:23.856Z,50.30
2023-05-19T07:25:55.601Z,50.10
2023-05-19T07:28:23.926Z,50.00
2023-05-19T07:30:53.127Z,49.90
2023-05-19T07:33:21.449Z,49.60
2023-05-19T07:35:50.090Z,49.40
2023-05-19T07:38:18.329Z,49.30
2023-05-19T07:40:48.068Z,49.10
2023-05-19T07:43:16.423Z,49.10
2023-05-19T07:45:44.839Z,49.60
2023-05-19T07:48:13.097Z,48.90
2023-05-19T07:50:41.356Z,48.80
2023-05-19T07:53:09.537Z,48.90
2023-05-19T07:55:37.716Z,48.80
2023-05-19T07:58:07.218Z,48.50
2023-05-19T08:00:35.633Z,48.30
2023-05-19T08:03:04.315Z,48.00
2023-05-19T08:05:32.611Z,48.10
2023-05-19T08:08:00.803Z,48.20
2023-05-19T08:10:29.116Z,48.30
2023-05-19T08:12:57.403Z,48.00
2023-05-19T08:15:27.077Z,47.90
2023-05-19T08:17:55.736Z,47.70
2023-05-19T08:20:24.383Z,47.70
2023-05-19T08:22:52.644Z,47.60
2023-05-19T08:25:21.077Z,47.60
2023-05-19T08:27:49.513Z,47.40
2023-05-19T08:30:17.795Z,47.20
2023-05-19T08:32:48.540Z,47.00
2023-05-19T08:35:16.888Z,46.80
2023-05-19T08:37:45.103Z,47.00
2023-05-19T08:40:18.040Z,47.10
2023-05-19T08:42:46.494Z,46.70
2023-05-19T08:45:14.938Z,46.60
2023-05-19T08:47:43.860Z,46.40
2023-05-19T08:50:18.379Z,46.10
2023-05-19T08:52:53.460Z,46.00
2023-05-19T08:55:33.872Z,45.70
2023-05-19T08:58:04.510Z,45.40
2023-05-19T09:00:33.751Z,45.60
2023-05-19T09:03:17.495Z,45.70
2023-05-19T09:05:49.017Z,45.60
2023-05-19T09:08:17.239Z,45.50
2023-05-19T09:10:45.552Z,45.50
2023-05-19T09:13:13.724Z,45.10
2023-05-19T09:15:43.523Z,45.00
2023-05-19T09:18:13.292Z,45.00
2023-05-19T09:20:42.575Z,45.00
2023-05-19T09:23:16.154Z,44.60
2023-05-19T09:25:51.349Z,44.30
2023-05-19T09:28:25.331Z,44.20
2023-05-19T09:31:03.888Z,44.00
2023-05-19T09:33:34.406Z,43.80
2023-05-19T09:36:03.528Z,43.80
2023-05-19T09:38:33.549Z,43.40
2023-05-19T09:41:02.476Z,42.90
2023-05-19T09:43:32.762Z,42.70
2023-05-19T09:46:02.242Z,42.70
2023-05-19T09:48:30.582Z,42.70
2023-05-19T09:50:59.185Z,42.80
2023-05-19T09:53:27.685Z,42.60
2023-05-19T09:55:58.839Z,42.20
2023-05-19T09:58:28.398Z,41.90
2023-05-19T10:00:57.436Z,41.80
2023-05-19T10:03:27.276Z,42.00
2023-05-19T10:05:56.459Z,41.60
2023-05-19T10:08:26.614Z,41.60
2023-05-19T10:10:56.906Z,41.70
2023-05-19T10:13:25.245Z,41.60
2023-05-19T10:15:58.601Z,41.60
2023-05-19T10:18:29.252Z,41.60
2023-05-19T10:20:58.629Z,41.20
2023-05-19T10:23:26.984Z,41.10
2023-05-19T10:26:00.053Z,40.90
2023-05-19T10:28:35.791Z,40.40
2023-05-19T10:31:08.211Z,40.10
2023-05-19T10:33:46.221Z,40.00
2023-05-19T10:36:31.028Z,40.30
2023-05-19T10:39:07.608Z,40.20
2023-05-19T10:41:50.289Z,39.90
2023-05-19T10:44:29.203Z,39.50
2023-05-19T10:46:57.574Z,39.70
2023-05-19T10:49:25.985Z,39.50
2023-05-19T10:51:57.544Z,39.10
2023-05-19T10:54:43.441Z,39.10
2023-05-19T10:57:17.758Z,39.50
2023-05-19T10:59:46.336Z,39.50
2023-05-19T11:02:39.615Z,39.40
2023-05-19T11:05:14.267Z,38.80
2023-05-19T11:07:44.184Z,38.90
2023-05-19T11:10:12.967Z,38.90
2023-05-19T11:12:44.146Z,38.80
2023-05-19T11:15:14.779Z,38.40
2023-05-19T11:17:46.203Z,38.00
2023-05-19T11:20:23.533Z,38.00
2023-05-19T11:23:08.433Z,38.70
2023-05-19T11:25:44.705Z,38.30
2023-05-19T11:28:16.653Z,38.30
2023-05-19T11:30:46.672Z,38.60
2023-05-19T11:33:15.305Z,38.80
2023-05-19T11:35:46.293Z,38.30
2023-05-19T11:38:15.391Z,37.90
2023-05-19T11:40:44.336Z,37.70
2023-05-19T11:43:13.889Z,37.20
2023-05-19T11:45:42.331Z,37.00
2023-05-19T11:48:13.125Z,37.20
2023-05-19T11:50:43.852Z,37.20
2023-05-19T11:53:13.895Z,37.20
2023-05-19T11:55:47.213Z,37.00
2023-05-19T11:58:17.467Z,36.80
2023-05-19T12:00:47.754Z,36.40
2023-05-19T12:03:17.409Z,36.20
2023-05-19T12:05:49.378Z,36.10
2023-05-19T12:08:18.990Z,36.00
2023-05-19T12:10:50.795Z,35.50
2023-05-19T12:13:22.521Z,35.10
2023-05-19T12:15:52.100Z,35.30
2023-05-19T12:18:20.659Z,35.50
2023-05-19T12:20:49.195Z,35.60
2023-05-19T12:23:17.456Z,35.20
2023-05-19T12:25:46.028Z,34.90
2023-05-19T12:28:14.286Z,35.00
2023-05-19T12:30:49.209Z,35.10
2023-05-19T12:33:17.835Z,34.50
2023-05-19T12:35:47.603Z,34.50
2023-05-19T12:38:15.958Z,34.50
2023-05-19T12:40:44.809Z,34.40
2023-05-19T12:43:20.987Z,34.50
2023-05-19T12:45:50.783Z,34.60
2023-05-19T12:48:22.543Z,34.60
2023-05-19T12:50:53.891Z,34.30
2023-05-19T12:53:22.436Z,34.30
2023-05-19T12:55:53.831Z,34.40
2023-05-19T12:58:23.264Z,34.20
2023-05-19T13:01:00.287Z,34.20
2023-05-19T13:03:28.649Z,33.60
2023-05-19T13:05:59.477Z,33.20
2023-05-19T13:08:27.770Z,32.90
2023-05-19T13:10:56.156Z,32.80
2023-05-19T13:13:24.287Z,32.40
2023-05-19T13:15:54.017Z,32.00
2023-05-19T13:18:22.745Z,31.80
2023-05-19T13:20:52.933Z,31.30
2023-05-19T13:23:21.188Z,30.60
2023-05-19T13:25:50.598Z,30.40
2023-05-19T13:28:19.075Z,30.40
2023-05-19T13:30:48.234Z,30.10
2023-05-19T13:33:17.835Z,29.70
2023-05-19T13:35:46.000Z,29.40
2023-05-19T13:38:14.599Z,29.30
2023-05-19T13:40:42.809Z,29.30
2023-05-19T13:43:10.992Z,29.30
2023-05-19T13:45:39.162Z,29.20
2023-05-19T13:48:08.453Z,29.40
2023-05-19T13:50:37.997Z,29.20
2023-05-19T13:53:06.186Z,29.70
2023-05-19T13:55:34.438Z,29.40
2023-05-19T13:58:03.402Z,29.00
2023-05-19T14:00:32.992Z,29.10
2023-05-19T14:03:01.598Z,28.90
2023-05-19T14:05:31.104Z,28.70
2023-05-19T14:08:01.252Z,28.60
2023-05-19T14:10:29.608Z,28.30
2023-05-19T14:15:38.063Z,28.00
2023-05-19T14:18:07.316Z,28.10
2023-05-19T14:20:36.289Z,27.80
2023-05-19T14:23:08.449Z,27.50
2023-05-19T14:25:36.606Z,27.50
2023-05-19T14:28:04.955Z,27.90
2023-05-19T14:30:33.374Z,28.00
2023-05-19T14:33:01.873Z,27.90
2023-05-19T14:35:30.058Z,28.00
2023-05-19T14:37:58.186Z,27.90
2023-05-19T14:40:27.753Z,28.10
2023-05-19T14:42:56.134Z,28.20
2023-05-19T14:45:24.288Z,28.00
2023-05-19T14:47:52.727Z,27.70
2023-05-19T14:50:21.248Z,27.70
2023-05-19T14:52:49.410Z,27.50
2023-05-19T14:55:17.726Z,27.20
2023-05-19T14:57:47.616Z,27.20
2023-05-19T15:00:16.784Z,27.20
2023-05-19T15:02:45.345Z,27.30
2023-05-19T15:05:13.625Z,27.30
2023-05-19T15:07:41.825Z,27.60
2023-05-19T15:10:10.694Z,27.90
2023-05-19T15:12:39.178Z,28.20
2023-05-19T15:15:10.299Z,28.40
2023-05-19T15:17:39.052Z,28.30
2023-05-19T15:20:08.451Z,28.50
2023-05-19T15:22:36.801Z,28.50
2023-05-19T15:25:05.443Z,28.40
2023-05-19T15:27:35.177Z,28.60
2023-05-19T15:30:03.466Z,28.70
2023-05-19T15:32:33.752Z,28.70
2023-05-19T15:35:02.105Z,28.30
2023-05-19T15:37:30.314Z,28.20
2023-05-19T15:39:58.532Z,28.10
2023-05-19T15:42:26.910Z,28.10
2023-05-19T15:44:55.092Z,28.40
2023-05-19T15:47:23.270Z,28.70
2023-05-19T15:49:53.039Z,28.90
2023-05-19T15:52:21.291Z,29.20
2023-05-19T15:54:49.796Z,29.20
2023-05-19T15:57:17.964Z,29.00
2023-05-19T15:59:46.100Z,29.00
2023-05-19T16:02:15.545Z,29.10
2023-05-19T16:04:43.834Z,29.10
2023-05-19T16:07:13.365Z,29.10
2023-05-19T16:09:41.613Z,29.50
2023-05-19T16:12:09.807Z,29.10
2023-05-19T16:14:37.986Z,29.30
2023-05-19T16:17:11.365Z,29.10
2023-05-19T16:19:39.619Z,29.10
2023-05-19T16:22:07.810Z,29.40
2023-05-19T16:24:37.720Z,29.90
2023-05-19T16:27:06.612Z,29.90
2023-05-19T16:29:34.768Z,30.00
2023-05-19T16:32:02.954Z,29.90
2023-05-19T16:34:31.184Z,29.80
2023-05-19T16:36:59.554Z,29.40
2023-05-19T16:39:27.791Z,29.20
2023-05-19T16:41:57.322Z,28.90
2023-05-19T16:44:25.658Z,28.60
2023-05-19T16:46:53.869Z,28.50
2023-05-19T16:49:22.104Z,28.50
2023-05-19T16:51:50.347Z,28.30
2023-05-19T16:54:18.654Z,28.50
2023-05-19T16:56:47.256Z,28.20
2023-05-19T16:59:17.175Z,27.90
2023-05-19T17:01:45.469Z,28.10
2023-05-19T17:04:13.733Z,28.40
2023-05-19T17:06:41.904Z,28.60
2023-05-19T17:09:10.089Z,28.90
2023-05-19T17:11:38.361Z,29.20
2023-05-19T17:14:08.060Z,29.00
2023-05-19T17:16:38.058Z,29.30
2023-05-19T17:19:06.292Z,29.50
2023-05-19T17:21:34.532Z,29.50
2023-05-19T17:24:02.677Z,29.40
2023-05-19T17:26:30.903Z,29.60
2023-05-19T17:28:59.084Z,29.80
2023-05-19T17:31:27.518Z,30.00
2023-05-19T17:33:57.041Z,30.10
2023-05-19T17:36:25.191Z,30.10
2023-05-19T17:38:53.356Z,30.20
2023-05-19T17:41:21.859Z,30.30
2023-05-19T17:43:50.045Z,30.40
2023-05-19T17:46:18.275Z,30.50
2023-05-19T17:48:46.501Z,30.50
2023-05-19T17:51:16.026Z,30.70
2023-05-19T17:53:45.426Z,31.10
2023-05-19T17:56:14.124Z,31.20
2023-05-19T17:58:44.132Z,31.50
2023-05-19T18:01:12.548Z,31.70
2023-05-19T18:03:41.345Z,31.90
2023-05-19T18:06:09.853Z,32.20
2023-05-19T18:08:42.470Z,32.20
2023-05-19T18:11:13.342Z,32.20
2023-05-19T18:13:42.608Z,32.30
2023-05-19T18:16:11.158Z,32.50
2023-05-19T18:18:43.166Z,32.60
2023-05-19T18:21:17.641Z,32.60
2023-05-19T18:23:47.896Z,32.70
2023-05-19T18:26:16.180Z,32.80
2023-05-19T18:28:44.421Z,33.20
2023-05-19T18:31:19.573Z,33.20
2023-05-19T18:33:48.198Z,33.40
2023-05-19T18:36:16.593Z,33.40
2023-05-19T18:38:44.796Z,33.50
2023-05-19T18:41:14.597Z,33.70
2023-05-19T18:43:42.910Z,34.00
2023-05-19T18:46:11.458Z,34.10
2023-05-19T18:48:39.902Z,34.10
2023-05-19T18:51:08.949Z,34.40
2023-05-19T18:53:37.643Z,34.30
2023-05-19T18:56:06.211Z,34.40
2023-05-19T18:58:35.937Z,34.50
2023-05-19T19:01:05.028Z,34.20
2023-05-19T19:03:33.319Z,34.30
2023-05-19T19:06:01.830Z,34.50
2023-05-19T19:08:29.985Z,34.70
2023-05-19T19:11:00.292Z,34.80
2023-05-19T19:13:28.758Z,34.90
2023-05-19T19:15:58.378Z,34.80
2023-05-19T19:18:27.078Z,35.10
2023-05-19T19:20:57.188Z,35.10
2023-05-19T19:23:25.543Z,35.20
2023-05-19T19:25:56.067Z,35.60
2023-05-19T19:28:24.807Z,35.70
2023-05-19T19:30:53.110Z,35.80
2023-05-19T19:33:22.814Z,36.00
2023-05-19T19:35:51.031Z,36.10
2023-05-19T19:38:19.443Z,36.10
2023-05-19T19:40:47.653Z,36.10
2023-05-19T19:43:15.915Z,36.40
2023-05-19T19:45:44.096Z,36.60
2023-05-19T19:48:12.870Z,36.70
2023-05-19T19:50:42.451Z,37.00
2023-05-19T19:53:10.851Z,37.10
2023-05-19T19:55:39.017Z,37.00
2023-05-19T19:58:07.245Z,37.10
2023-05-19T20:00:35.674Z,37.30
2023-05-19T20:03:05.821Z,37.50
2023-05-19T20:05:34.555Z,37.40
2023-05-19T20:08:04.186Z,37.70
2023-05-19T20:10:32.791Z,37.80
2023-05-19T20:13:01.125Z,37.90
2023-05-19T20:15:29.359Z,38.00
2023-05-19T20:17:57.945Z,38.10
2023-05-19T20:20:26.290Z,38.30
2023-05-19T20:22:54.609Z,38.60
2023-05-19T20:25:24.116Z,38.70
2023-05-19T20:27:52.269Z,38.70
2023-05-19T20:30:20.704Z,38.90
2023-05-19T20:32:48.985Z,38.90
2023-05-19T20:35:17.262Z,39.00
2023-05-19T20:37:45.592Z,39.00
2023-05-19T20:40:13.941Z,39.20
2023-05-19T20:42:43.676Z,39.20
2023-05-19T20:45:12.063Z,39.20
2023-05-19T20:47:40.504Z,39.20
2023-05-19T20:50:09.632Z,39.30
2023-05-19T20:52:37.853Z,39.30
2023-05-19T20:55:06.404Z,39.40
2023-05-19T20:57:34.913Z,39.70
2023-05-19T21:00:05.068Z,39.60
2023-05-19T21:02:33.357Z,39.60
2023-05-19T21:05:01.748Z,39.80
2023-05-19T21:07:30.135Z,39.90
2023-05-19T21:09:58.288Z,40.20
2023-05-19T21:12:28.894Z,40.30
2023-05-19T21:14:57.089Z,40.20
2023-05-19T21:17:26.816Z,40.40
2023-05-19T21:19:57.928Z,40.40
2023-05-19T21:22:26.790Z,40.40
2023-05-19T21:24:55.085Z,40.60
2023-05-19T21:27:23.616Z,40.70
2023-05-19T21:29:53.365Z,40.80
2023-05-19T21:32:21.929Z,40.90
2023-05-19T21:34:51.541Z,41.00
2023-05-19T21:37:21.053Z,41.30
2023-05-19T21:39:49.357Z,41.30
2023-05-19T21:42:17.563Z,41.40
2023-05-19T21:44:45.825Z,41.30
2023-05-19T21:47:14.014Z,41.40
2023-05-19T21:49:42.243Z,41.40
2023-05-19T21:52:11.993Z,41.60
2023-05-19T21:54:40.142Z,41.60
2023-05-19T21:57:08.306Z,41.70
2023-05-19T21:59:36.517Z,41.90
2023-05-19T22:02:05.591Z,42.00
2023-05-19T22:04:33.824Z,42.00
2023-05-19T22:07:02.036Z,42.10
2023-05-19T22:09:31.706Z,42.00
2023-05-19T22:11:59.883Z,42.10
2023-05-19T22:14:28.056Z,42.10
2023-05-19T22:16:56.285Z,42.20
2023-05-19T22:19:24.616Z,42.30
2023-05-19T22:22:01.764Z,42.30
2023-05-19T22:24:39.733Z,42.30
2023-05-19T22:27:08.598Z,42.60
2023-05-19T22:29:38.485Z,42.50
2023-05-19T22:32:11.631Z,42.60
2023-05-19T22:34:40.089Z,42.80
2023-05-19T22:37:08.424Z,42.90
2023-05-19T22:39:36.713Z,42.90
2023-05-19T22:42:06.825Z,42.90
2023-05-19T22:44:35.032Z,42.90
2023-05-19T22:47:03.284Z,43.10
2023-05-19T22:49:31.508Z,43.80
2023-05-19T22:51:59.677Z,43.30
2023-05-19T22:54:27.921Z,43.40
2023-05-19T22:56:56.116Z,43.40
2023-05-19T22:59:25.679Z,43.60
2023-05-19T23:01:53.915Z,44.30
2023-05-19T23:04:22.230Z,43.80
2023-05-19T23:06:50.790Z,43.80
2023-05-19T23:09:19.053Z,43.90
2023-05-19T23:11:48.275Z,44.00
2023-05-19T23:14:18.399Z,44.10
2023-05-19T23:16:47.987Z,44.20
2023-05-19T23:19:16.963Z,44.20
2023-05-19T23:21:45.850Z,44.20
2023-05-19T23:24:14.017Z,44.30
2023-05-19T23:26:43.228Z,44.40
2023-05-19T23:29:12.761Z,44.30
2023-05-19T23:31:41.017Z,44.40
2023-05-19T23:34:10.775Z,44.60
2023-05-19T23:36:38.961Z,44.70
2023-05-19T23:39:07.337Z,44.70
2023-05-19T23:41:36.606Z,44.70
2023-05-19T23:44:04.928Z,44.70
2023-05-19T23:46:33.199Z,44.80
2023-05-19T23:49:01.490Z,44.80
2023-05-19T23:51:31.260Z,45.00
2023-05-19T23:53:59.794Z,45.00
2023-05-19T23:56:28.008Z,45.00
2023-05-19T23:58:56.319Z,45.00
